createdAt,value
2018-08-28T00:01:30.833Z,58.42
2018-08-28T00:03:58.468Z,58.53
2018-08-28T00:06:26.844Z,58.78
2018-08-28T00:08:54.456Z,58.82
2018-08-28T00:11:22.080Z,58.24
2018-08-28T00:13:49.726Z,58.68
2018-08-28T00:16:17.321Z,57.72
2018-08-28T00:18:44.940Z,58.30
2018-08-28T00:21:12.529Z,57.62
2018-08-28T00:23:40.512Z,57.51
2018-08-28T00:26:08.458Z,57.98
2018-08-28T00:28:36.489Z,57.68
2018-08-28T00:31:04.088Z,57.81
2018-08-28T00:33:31.663Z,57.71
2018-08-28T00:35:59.435Z,57.49
2018-08-28T00:38:27.003Z,58.10
2018-08-28T00:40:54.663Z,57.02
2018-08-28T00:43:22.248Z,57.89
2018-08-28T00:45:49.898Z,57.28
2018-08-28T00:48:17.581Z,57.39
2018-08-28T00:50:45.272Z,57.66
2018-08-28T00:53:12.935Z,57.51
2018-08-28T00:55:40.522Z,58.00
2018-08-28T00:58:08.739Z,58.15
2018-08-28T01:00:36.314Z,58.31
2018-08-28T01:03:04.178Z,58.67
2018-08-28T01:05:31.866Z,57.89
2018-08-28T01:07:59.475Z,57.88
2018-08-28T01:10:27.143Z,57.89
2018-08-28T01:12:54.894Z,58.53
2018-08-28T01:15:22.496Z,59.16
2018-08-28T01:17:50.091Z,58.73
2018-08-28T01:22:52.259Z,58.65
2018-08-28T01:25:19.885Z,58.26
2018-08-28T01:27:47.418Z,57.91
2018-08-28T01:30:19.668Z,58.28
2018-08-28T01:32:47.234Z,58.54
2018-08-28T01:35:14.870Z,59.06
2018-08-28T01:37:42.494Z,58.22
2018-08-28T01:40:10.112Z,58.89
2018-08-28T01:42:37.746Z,59.38
2018-08-28T01:45:05.848Z,58.18
2018-08-28T01:47:33.437Z,58.50
2018-08-28T01:50:01.026Z,59.29
2018-08-28T01:52:28.702Z,58.80
2018-08-28T01:54:56.389Z,58.67
2018-08-28T01:57:24.044Z,59.02
2018-08-28T01:59:51.660Z,59.65
2018-08-28T02:02:19.306Z,59.39
2018-08-28T02:04:46.903Z,59.19
2018-08-28T02:07:14.578Z,59.58
2018-08-28T02:09:42.329Z,59.12
2018-08-28T02:12:10.030Z,58.50
2018-08-28T02:14:37.560Z,58.50
2018-08-28T02:17:05.250Z,58.47
2018-08-28T02:19:32.845Z,58.85
2018-08-28T02:22:00.499Z,58.78
2018-08-28T02:24:28.096Z,59.09
2018-08-28T02:26:55.798Z,58.66
2018-08-28T02:29:23.455Z,59.24
2018-08-28T02:31:51.058Z,59.64
2018-08-28T02:34:18.635Z,59.47
2018-08-28T02:36:46.249Z,60.00
2018-08-28T02:39:13.857Z,59.25
2018-08-28T02:41:41.691Z,60.05
2018-08-28T02:44:09.327Z,59.78
2018-08-28T02:46:37.502Z,60.60
2018-08-28T02:49:05.374Z,60.60
2018-08-28T02:51:33.232Z,59.90
2018-08-28T02:54:00.870Z,59.97
2018-08-28T02:56:28.472Z,60.03
2018-08-28T02:58:56.464Z,60.81
2018-08-28T03:01:25.299Z,60.49
2018-08-28T03:03:52.907Z,61.06
2018-08-28T03:06:20.893Z,60.82
2018-08-28T03:08:48.637Z,60.75
2018-08-28T03:11:16.353Z,60.23
2018-08-28T03:13:43.954Z,60.78
2018-08-28T03:16:11.548Z,60.89
2018-08-28T03:18:39.181Z,60.94
2018-08-28T03:21:06.947Z,61.05
2018-08-28T03:23:34.758Z,60.93
2018-08-28T03:26:02.453Z,60.76
2018-08-28T03:28:30.111Z,60.46
2018-08-28T03:30:57.691Z,60.35
2018-08-28T03:33:25.307Z,60.78
2018-08-28T03:35:53.230Z,60.63
2018-08-28T03:38:21.067Z,61.40
2018-08-28T03:40:48.782Z,61.59
2018-08-28T03:43:16.434Z,61.83
2018-08-28T03:45:44.014Z,61.95
2018-08-28T03:48:18.527Z,61.60
2018-08-28T03:50:46.179Z,61.74
2018-08-28T03:53:13.904Z,61.69
2018-08-28T03:55:41.543Z,61.72
2018-08-28T03:58:09.255Z,62.01
2018-08-28T04:00:36.837Z,61.66
2018-08-28T04:03:04.597Z,62.21
2018-08-28T04:05:32.253Z,61.38
2018-08-28T04:07:59.864Z,62.29
2018-08-28T04:10:27.861Z,62.90
2018-08-28T04:12:55.450Z,62.14
2018-08-28T04:15:23.151Z,62.44
2018-08-28T04:17:51.714Z,62.33
2018-08-28T04:20:20.483Z,62.66
2018-08-28T04:22:48.085Z,62.14
2018-08-28T04:25:17.454Z,62.58
2018-08-28T04:27:45.613Z,61.72
2018-08-28T04:30:13.332Z,61.95
2018-08-28T04:32:41.034Z,61.75
2018-08-28T04:35:08.605Z,62.00
2018-08-28T04:37:36.223Z,61.84
2018-08-28T04:40:04.581Z,60.76
2018-08-28T04:42:32.273Z,60.71
2018-08-28T04:44:59.882Z,60.67
2018-08-28T04:47:27.541Z,61.12
2018-08-28T04:49:55.139Z,60.70
2018-08-28T04:52:22.766Z,61.08
2018-08-28T04:54:50.431Z,61.21
2018-08-28T04:57:18.079Z,59.89
2018-08-28T04:59:45.641Z,60.20
2018-08-28T05:02:13.387Z,59.56
2018-08-28T05:04:41.723Z,59.31
2018-08-28T05:07:09.699Z,59.17
2018-08-28T05:09:37.377Z,57.65
2018-08-28T05:12:05.085Z,57.40
2018-08-28T05:14:32.801Z,56.74
2018-08-28T05:17:00.462Z,56.64
2018-08-28T05:19:28.210Z,56.75
2018-08-28T05:21:55.797Z,55.55
2018-08-28T05:24:23.405Z,55.72
2018-08-28T05:26:51.658Z,55.55
2018-08-28T05:29:19.461Z,54.98
2018-08-28T05:31:47.136Z,55.50
2018-08-28T05:34:14.770Z,55.80
2018-08-28T05:36:42.433Z,55.16
2018-08-28T05:39:10.093Z,56.91
2018-08-28T05:41:37.784Z,56.99
2018-08-28T05:44:05.470Z,56.87
2018-08-28T05:46:33.134Z,57.10
2018-08-28T05:49:00.817Z,57.21
2018-08-28T05:51:28.578Z,57.40
2018-08-28T05:53:56.208Z,57.82
2018-08-28T05:56:23.888Z,58.16
2018-08-28T05:58:51.571Z,57.53
2018-08-28T06:01:19.310Z,58.27
2018-08-28T06:03:47.002Z,58.04
2018-08-28T06:06:14.620Z,57.98
2018-08-28T06:08:42.395Z,58.74
2018-08-28T06:11:10.017Z,59.72
2018-08-28T06:13:37.746Z,60.14
2018-08-28T06:16:05.447Z,59.98
2018-08-28T06:18:33.121Z,60.61
2018-08-28T06:21:00.729Z,60.07
2018-08-28T06:23:28.570Z,59.23
2018-08-28T06:25:56.277Z,59.09
2018-08-28T06:28:23.946Z,57.88
2018-08-28T06:30:51.606Z,57.50
2018-08-28T06:33:19.301Z,57.89
2018-08-28T06:35:46.947Z,57.59
2018-08-28T06:38:14.621Z,55.83
2018-08-28T06:40:42.255Z,55.13
2018-08-28T06:43:09.901Z,53.69
2018-08-28T06:45:37.537Z,51.66
2018-08-28T06:48:05.270Z,52.83
2018-08-28T06:50:32.847Z,54.75
2018-08-28T06:53:00.469Z,54.28
2018-08-28T06:55:28.167Z,52.78
2018-08-28T06:57:55.851Z,51.98
2018-08-28T07:00:23.491Z,51.22
2018-08-28T07:02:51.182Z,50.63
2018-08-28T07:05:18.889Z,50.86
2018-08-28T07:07:46.471Z,50.73
2018-08-28T07:10:14.187Z,51.76
2018-08-28T07:12:41.786Z,52.60
2018-08-28T07:15:09.479Z,51.81
2018-08-28T07:17:37.110Z,51.58
2018-08-28T07:20:05.170Z,50.74
2018-08-28T07:22:32.809Z,51.35
2018-08-28T07:25:00.438Z,51.28
2018-08-28T07:27:28.020Z,51.24
2018-08-28T07:29:55.639Z,52.63
2018-08-28T07:32:23.185Z,52.12
2018-08-28T07:34:50.924Z,51.72
2018-08-28T07:37:18.561Z,51.57
2018-08-28T07:39:46.187Z,52.53
2018-08-28T07:42:13.823Z,51.15
2018-08-28T07:44:41.573Z,49.40
2018-08-28T07:47:09.256Z,48.04
2018-08-28T07:49:36.889Z,46.36
2018-08-28T07:52:04.529Z,45.56
2018-08-28T07:54:32.227Z,45.15
2018-08-28T07:56:59.831Z,44.22
2018-08-28T07:59:27.467Z,44.24
2018-08-28T08:01:55.201Z,43.72
2018-08-28T08:04:22.868Z,43.56
2018-08-28T08:06:50.457Z,44.30
2018-08-28T08:09:18.535Z,45.31
2018-08-28T08:11:46.251Z,45.98
2018-08-28T08:14:13.931Z,44.64
2018-08-28T08:16:41.530Z,44.36
2018-08-28T08:19:09.194Z,43.88
2018-08-28T08:21:36.836Z,42.61
2018-08-28T08:24:04.518Z,41.89
2018-08-28T08:26:32.340Z,41.75
2018-08-28T08:29:00.044Z,40.48
2018-08-28T08:31:27.663Z,40.50
2018-08-28T08:33:55.257Z,39.29
2018-08-28T08:36:22.823Z,37.81
2018-08-28T08:38:50.455Z,37.43
2018-08-28T08:41:18.165Z,38.65
2018-08-28T08:43:45.811Z,38.79
2018-08-28T08:46:13.443Z,37.59
2018-08-28T08:48:41.070Z,39.19
2018-08-28T08:51:08.767Z,37.67
2018-08-28T08:53:36.389Z,38.24
2018-08-28T08:56:04.073Z,38.11
2018-08-28T08:58:31.663Z,37.71
2018-08-28T09:00:59.373Z,39.41
2018-08-28T09:03:26.914Z,39.68
2018-08-28T09:05:54.761Z,38.52
2018-08-28T09:08:22.441Z,38.79
2018-08-28T09:10:50.041Z,39.90
2018-08-28T09:13:17.817Z,39.99
2018-08-28T09:15:45.508Z,38.88
2018-08-28T09:18:13.138Z,37.64
2018-08-28T09:20:40.694Z,37.92
2018-08-28T09:23:08.299Z,37.23
2018-08-28T09:25:35.872Z,37.24
2018-08-28T09:28:03.614Z,36.22
2018-08-28T09:30:31.234Z,36.95
2018-08-28T09:32:58.814Z,35.63
2018-08-28T09:35:26.466Z,36.38
2018-08-28T09:37:54.094Z,34.99
2018-08-28T09:40:21.671Z,35.07
2018-08-28T09:42:49.301Z,34.98
2018-08-28T09:45:16.952Z,33.92
2018-08-28T09:47:44.545Z,35.27
2018-08-28T09:50:12.212Z,34.89
2018-08-28T09:52:39.771Z,33.79
2018-08-28T09:55:07.435Z,34.30
2018-08-28T09:57:35.088Z,35.16
2018-08-28T10:00:02.724Z,34.23
2018-08-28T10:02:30.670Z,34.31
2018-08-28T10:04:58.540Z,34.28
2018-08-28T10:07:25.921Z,35.33
2018-08-28T10:09:53.491Z,34.71
2018-08-28T10:12:21.143Z,34.08
2018-08-28T10:14:48.777Z,32.51
2018-08-28T10:17:16.451Z,32.44
2018-08-28T10:19:44.047Z,31.39
2018-08-28T10:22:11.705Z,31.40
2018-08-28T10:24:39.295Z,31.99
2018-08-28T10:27:06.883Z,32.66
2018-08-28T10:29:34.548Z,32.74
2018-08-28T10:32:02.171Z,32.69
2018-08-28T10:34:29.741Z,32.77
2018-08-28T10:36:57.410Z,31.52
2018-08-28T10:39:25.004Z,30.46
2018-08-28T10:41:52.600Z,30.38
2018-08-28T10:44:20.264Z,31.10
2018-08-28T10:46:48.046Z,30.85
2018-08-28T10:49:15.563Z,31.86
2018-08-28T10:51:43.224Z,33.18
2018-08-28T10:54:10.842Z,31.56
2018-08-28T10:56:38.490Z,32.51
2018-08-28T10:59:06.114Z,33.09
2018-08-28T11:01:33.761Z,32.28
2018-08-28T11:04:01.514Z,32.63
2018-08-28T11:06:29.126Z,32.23
2018-08-28T11:08:56.734Z,31.23
2018-08-28T11:11:24.349Z,29.87
2018-08-28T11:13:51.978Z,28.97
2018-08-28T11:16:19.570Z,27.54
2018-08-28T11:18:47.211Z,28.20
2018-08-28T11:21:15.991Z,27.52
2018-08-28T11:23:43.641Z,28.09
2018-08-28T11:26:11.362Z,29.94
2018-08-28T11:28:39.005Z,28.85
2018-08-28T11:31:06.699Z,27.68
2018-08-28T11:33:34.515Z,26.75
2018-08-28T11:36:02.059Z,25.15
2018-08-28T11:38:29.757Z,25.96
2018-08-28T11:40:57.315Z,25.82
2018-08-28T11:43:24.954Z,24.74
2018-08-28T11:45:53.257Z,26.00
2018-08-28T11:48:20.858Z,25.70
2018-08-28T11:50:48.490Z,25.75
2018-08-28T11:53:16.328Z,26.97
2018-08-28T11:55:43.870Z,27.34
2018-08-28T11:58:11.523Z,27.11
2018-08-28T12:00:39.131Z,26.32
2018-08-28T12:03:06.833Z,25.70
2018-08-28T12:05:34.556Z,24.65
2018-08-28T12:08:02.206Z,23.42
2018-08-28T12:10:29.846Z,21.87
2018-08-28T12:12:57.584Z,19.43
2018-08-28T12:15:25.220Z,19.27
2018-08-28T12:17:52.852Z,19.34
2018-08-28T12:20:20.529Z,17.64
2018-08-28T12:22:48.093Z,19.55
2018-08-28T12:25:15.742Z,21.27
2018-08-28T12:27:43.395Z,21.92
2018-08-28T12:30:11.359Z,23.45
2018-08-28T12:32:38.946Z,23.42
2018-08-28T12:35:06.890Z,25.11
2018-08-28T12:37:34.680Z,25.40
2018-08-28T12:40:02.448Z,24.53
2018-08-28T12:42:30.601Z,23.63
2018-08-28T12:44:58.294Z,21.85
2018-08-28T12:47:25.969Z,20.76
2018-08-28T12:49:53.597Z,18.78
2018-08-28T12:52:21.243Z,14.67
2018-08-28T12:54:49.136Z,12.45
2018-08-28T12:57:16.983Z,14.41
2018-08-28T12:59:44.605Z,17.69
2018-08-28T13:02:12.396Z,18.35
2018-08-28T13:04:39.937Z,18.48
2018-08-28T13:07:07.568Z,17.95
2018-08-28T13:09:35.340Z,19.41
2018-08-28T13:12:03.106Z,21.03
2018-08-28T13:14:31.053Z,20.80
2018-08-28T13:16:58.891Z,21.49
2018-08-28T13:19:26.601Z,18.32
2018-08-28T13:21:54.198Z,15.61
2018-08-28T13:24:21.893Z,14.10
2018-08-28T13:26:49.606Z,12.79
2018-08-28T13:29:17.270Z,11.18
2018-08-28T13:31:44.884Z,13.25
2018-08-28T13:34:12.590Z,13.22
2018-08-28T13:36:40.194Z,12.87
2018-08-28T13:39:07.822Z,12.06
2018-08-28T13:41:35.651Z,12.08
2018-08-28T13:44:03.264Z,12.11
2018-08-28T13:46:30.937Z,13.86
2018-08-28T13:48:58.593Z,12.88
2018-08-28T13:51:26.269Z,10.73
2018-08-28T13:53:54.125Z,11.73
2018-08-28T13:56:21.611Z,10.12
2018-08-28T13:58:49.195Z,11.02
2018-08-28T14:01:16.938Z,11.75
2018-08-28T14:03:44.611Z,10.73
2018-08-28T14:06:12.233Z,9.48
2018-08-28T14:08:39.854Z,9.74
2018-08-28T14:11:07.508Z,8.73
2018-08-28T14:13:35.235Z,9.81
2018-08-28T14:16:02.833Z,11.12
2018-08-28T14:18:30.682Z,9.67
2018-08-28T14:20:58.438Z,9.39
2018-08-28T14:23:26.168Z,8.53
2018-08-28T14:25:53.920Z,9.20
2018-08-28T14:28:21.518Z,9.46
2018-08-28T14:30:49.239Z,9.29
2018-08-28T14:33:16.928Z,9.24
2018-08-28T14:35:44.692Z,8.84
2018-08-28T14:38:12.225Z,7.95
2018-08-28T14:40:39.922Z,8.06
2018-08-28T14:43:07.559Z,7.21
2018-08-28T14:45:35.210Z,7.69
2018-08-28T14:48:03.026Z,7.26
2018-08-28T14:50:31.141Z,7.30
2018-08-28T14:52:58.738Z,8.03
2018-08-28T14:55:26.384Z,7.47
2018-08-28T14:57:54.106Z,7.91
2018-08-28T15:00:21.736Z,7.82
2018-08-28T15:02:49.364Z,7.40
2018-08-28T15:05:16.937Z,7.56
2018-08-28T15:07:44.582Z,8.28
2018-08-28T15:10:12.267Z,7.28
2018-08-28T15:12:39.974Z,7.70
2018-08-28T15:15:07.678Z,6.92
2018-08-28T15:17:35.402Z,8.16
2018-08-28T15:20:03.188Z,10.44
2018-08-28T15:22:31.034Z,9.94
2018-08-28T15:24:58.970Z,11.44
2018-08-28T15:27:26.645Z,11.70
2018-08-28T15:29:54.260Z,12.36
2018-08-28T15:32:21.935Z,11.42
2018-08-28T15:34:49.591Z,11.85
2018-08-28T15:37:17.321Z,12.07
2018-08-28T15:39:44.950Z,12.51
2018-08-28T15:42:13.018Z,13.19
2018-08-28T15:44:40.641Z,12.25
2018-08-28T15:47:08.348Z,12.19
2018-08-28T15:49:36.006Z,11.12
2018-08-28T15:52:03.738Z,10.96
2018-08-28T15:54:31.450Z,10.51
2018-08-28T15:56:59.098Z,12.01
2018-08-28T15:59:26.860Z,11.95
2018-08-28T16:01:54.819Z,12.04
2018-08-28T16:04:22.448Z,11.62
2018-08-28T16:06:51.327Z,12.52
2018-08-28T16:09:18.948Z,12.29
2018-08-28T16:11:47.124Z,13.84
2018-08-28T16:14:14.906Z,14.95
2018-08-28T16:16:43.180Z,14.42
2018-08-28T16:19:10.888Z,14.05
2018-08-28T16:21:43.511Z,14.19
2018-08-28T16:24:11.195Z,14.93
2018-08-28T16:26:39.101Z,16.76
2018-08-28T16:29:07.081Z,15.39
2018-08-28T16:31:34.989Z,16.43
2018-08-28T16:34:02.699Z,16.90
2018-08-28T16:36:31.030Z,19.65
2018-08-28T16:38:58.771Z,19.29
2018-08-28T16:41:26.684Z,19.21
2018-08-28T16:43:54.415Z,19.65
2018-08-28T16:46:22.287Z,19.22
2018-08-28T16:48:49.943Z,19.76
2018-08-28T16:51:17.612Z,19.34
2018-08-28T16:53:45.375Z,20.12
2018-08-28T16:56:13.087Z,19.90
2018-08-28T16:58:40.684Z,20.06
2018-08-28T17:01:08.279Z,19.38
2018-08-28T17:03:35.973Z,18.81
2018-08-28T17:06:03.622Z,19.76
2018-08-28T17:08:31.250Z,19.42
2018-08-28T17:10:58.916Z,19.36
2018-08-28T17:13:26.552Z,20.59
2018-08-28T17:15:54.208Z,22.72
2018-08-28T17:18:22.467Z,22.89
2018-08-28T17:20:50.194Z,24.73
2018-08-28T17:23:17.982Z,25.40
2018-08-28T17:25:45.823Z,25.58
2018-08-28T17:28:13.417Z,25.97
2018-08-28T17:30:41.114Z,26.98
2018-08-28T17:33:08.792Z,27.43
2018-08-28T17:35:36.477Z,28.20
2018-08-28T17:38:04.585Z,28.88
2018-08-28T17:40:32.204Z,28.96
2018-08-28T17:42:59.810Z,29.13
2018-08-28T17:45:27.539Z,30.19
2018-08-28T17:47:55.348Z,30.56
2018-08-28T17:50:23.142Z,31.47
2018-08-28T17:52:50.808Z,31.26
2018-08-28T17:55:19.541Z,33.23
2018-08-28T17:57:47.488Z,34.16
2018-08-28T18:00:15.402Z,33.74
2018-08-28T18:02:43.270Z,33.59
2018-08-28T18:05:11.046Z,33.63
2018-08-28T18:07:38.804Z,34.15
2018-08-28T18:10:06.698Z,35.63
2018-08-28T18:12:34.659Z,36.19
2018-08-28T18:15:02.424Z,37.32
2018-08-28T18:17:30.158Z,37.13
2018-08-28T18:19:58.164Z,38.96
2018-08-28T18:22:26.128Z,39.93
2018-08-28T18:24:54.093Z,41.16
2018-08-28T18:27:22.005Z,41.66
2018-08-28T18:29:50.099Z,41.50
2018-08-28T18:32:17.863Z,41.75
2018-08-28T18:34:45.652Z,42.13
2018-08-28T18:37:13.629Z,41.80
2018-08-28T18:39:41.399Z,42.39
2018-08-28T18:42:09.231Z,41.93
2018-08-28T18:44:37.111Z,42.08
2018-08-28T18:47:05.082Z,42.15
2018-08-28T18:49:32.907Z,42.36
2018-08-28T18:52:00.814Z,41.80
2018-08-28T18:54:28.613Z,42.40
2018-08-28T18:56:56.638Z,42.67
2018-08-28T18:59:24.498Z,43.37
2018-08-28T19:01:52.444Z,43.87
2018-08-28T19:04:20.421Z,43.90
2018-08-28T19:06:48.254Z,43.96
2018-08-28T19:09:16.845Z,44.08
2018-08-28T19:11:44.707Z,44.18
2018-08-28T19:14:12.646Z,44.83
2018-08-28T19:16:40.428Z,44.74
2018-08-28T19:19:09.367Z,45.68
2018-08-28T19:21:37.147Z,45.69
2018-08-28T19:24:05.054Z,45.35
2018-08-28T19:26:32.793Z,45.79
2018-08-28T19:29:00.575Z,45.69
2018-08-28T19:31:28.358Z,46.29
2018-08-28T19:33:56.169Z,46.74
2018-08-28T19:36:24.025Z,46.92
2018-08-28T19:38:52.052Z,46.70
2018-08-28T19:41:20.008Z,46.81
2018-08-28T19:43:48.139Z,46.98
2018-08-28T19:46:15.946Z,47.84
2018-08-28T19:48:43.858Z,47.39
2018-08-28T19:51:11.668Z,48.12
2018-08-28T19:53:41.619Z,48.01
2018-08-28T19:56:09.954Z,47.43
2018-08-28T19:58:37.776Z,48.34
2018-08-28T20:01:05.778Z,47.84
2018-08-28T20:03:33.482Z,47.85
2018-08-28T20:06:01.462Z,48.26
2018-08-28T20:08:29.516Z,48.16
2018-08-28T20:10:57.254Z,48.85
2018-08-28T20:13:25.006Z,48.44
2018-08-28T20:15:52.732Z,48.92
2018-08-28T20:18:20.429Z,49.24
2018-08-28T20:20:48.219Z,49.48
2018-08-28T20:23:15.915Z,50.07
2018-08-28T20:25:43.714Z,50.31
2018-08-28T20:28:11.376Z,50.71
2018-08-28T20:30:39.276Z,50.77
2018-08-28T20:33:07.113Z,50.71
2018-08-28T20:35:34.815Z,51.38
2018-08-28T20:38:02.580Z,51.21
2018-08-28T20:40:30.391Z,51.05
2018-08-28T20:42:58.568Z,50.63
2018-08-28T20:45:26.327Z,51.45
2018-08-28T20:47:54.033Z,51.25
2018-08-28T20:50:21.767Z,50.76
2018-08-28T20:52:49.516Z,51.60
2018-08-28T20:55:17.189Z,51.31
2018-08-28T20:57:44.884Z,51.31
2018-08-28T21:00:12.632Z,51.96
2018-08-28T21:02:40.466Z,51.60
2018-08-28T21:05:08.183Z,51.92
2018-08-28T21:07:35.941Z,51.69
2018-08-28T21:10:03.949Z,52.70
2018-08-28T21:12:31.707Z,52.95
2018-08-28T21:14:59.472Z,53.19
2018-08-28T21:17:27.202Z,53.12
2018-08-28T21:19:55.036Z,53.19
2018-08-28T21:22:22.702Z,53.69
2018-08-28T21:24:50.406Z,53.41
2018-08-28T21:27:18.053Z,53.41
2018-08-28T21:29:45.746Z,53.87
2018-08-28T21:32:13.430Z,54.65
2018-08-28T21:34:41.129Z,54.40
2018-08-28T21:37:09.017Z,55.39
2018-08-28T21:39:36.780Z,54.73
2018-08-28T21:42:04.526Z,54.81
2018-08-28T21:44:32.167Z,55.33
2018-08-28T21:46:59.940Z,55.30
2018-08-28T21:49:27.553Z,56.04
2018-08-28T21:51:55.217Z,55.96
2018-08-28T21:54:22.881Z,56.30
2018-08-28T21:56:50.591Z,56.36
2018-08-28T21:59:18.334Z,56.19
2018-08-28T22:01:46.048Z,56.54
2018-08-28T22:04:13.671Z,56.56
2018-08-28T22:06:47.141Z,56.25
2018-08-28T22:09:14.823Z,56.98
2018-08-28T22:11:42.535Z,57.19
2018-08-28T22:14:10.231Z,56.91
2018-08-28T22:16:38.035Z,57.58
2018-08-28T22:19:05.753Z,57.91
2018-08-28T22:21:33.408Z,58.34
2018-08-28T22:24:01.195Z,58.66
2018-08-28T22:26:28.947Z,59.05
2018-08-28T22:28:56.629Z,58.68
2018-08-28T22:31:24.467Z,59.01
2018-08-28T22:33:52.153Z,59.06
2018-08-28T22:36:19.893Z,58.69
2018-08-28T22:38:47.572Z,58.73
2018-08-28T22:41:15.296Z,59.56
2018-08-28T22:43:43.019Z,59.73
2018-08-28T22:46:10.702Z,59.65
2018-08-28T22:48:38.368Z,59.72
2018-08-28T22:51:06.103Z,59.70
2018-08-28T22:53:33.814Z,59.79
2018-08-28T22:56:01.461Z,59.65
2018-08-28T22:58:29.099Z,60.44
2018-08-28T23:00:56.743Z,59.86
2018-08-28T23:03:24.454Z,60.24
2018-08-28T23:05:52.145Z,59.79
2018-08-28T23:08:19.892Z,59.98
2018-08-28T23:10:47.552Z,61.06
2018-08-28T23:13:15.277Z,60.94
2018-08-28T23:15:43.035Z,60.93
2018-08-28T23:18:10.826Z,60.80
2018-08-28T23:20:38.471Z,61.08
2018-08-28T23:23:06.491Z,61.28
2018-08-28T23:25:34.227Z,61.65
2018-08-28T23:28:01.967Z,61.26
2018-08-28T23:30:29.788Z,61.74
2018-08-28T23:32:57.429Z,61.68
2018-08-28T23:35:25.058Z,61.58
2018-08-28T23:37:52.679Z,61.75
2018-08-28T23:40:20.317Z,61.81
2018-08-28T23:42:48.001Z,61.91
2018-08-28T23:45:15.637Z,62.25
2018-08-28T23:47:43.302Z,62.17
2018-08-28T23:50:10.976Z,62.10
2018-08-28T23:52:38.728Z,62.14
2018-08-28T23:55:06.435Z,62.65
2018-08-28T23:57:34.195Z,62.93
